Time;durP1;ratioP1;P1;durP2;ratioP2;P2;SDS_P1;SDS_P2;PMS_P1;PMS_P2;Temp;Humidity;BMP_temperature;BMP_pressure;BME280_temperature;BME280_humidity;BME280_pressure;Samples;Min_cycle;Max_cycle;Signal;HPM_P1;HPM_P2
2022/08/01 00:00:37;;;;;;;1.63;1.13;;;22.90;98.00;;;23.30;91.59;100982.72;5191644;28;20415;-82
2022/08/01 00:03:09;;;;;;;1.90;0.88;;;22.80;98.00;;;23.28;91.98;100984.53;5174491;28;20054;-83
2022/08/01 00:05:44;;;;;;;2.70;1.10;;;22.80;98.00;;;23.29;91.66;100978.31;5174812;28;20057;-82
2022/08/01 00:08:16;;;;;;;2.15;1.30;;;22.80;98.00;;;23.25;92.08;100973.91;5192219;28;20479;-80
2022/08/01 00:10:48;;;;;;;2.75;0.90;;;22.70;98.00;;;23.23;92.29;100981.03;5173583;28;20057;-81
2022/08/01 00:13:20;;;;;;;1.48;1.17;;;22.70;98.10;;;23.20;92.54;100981.94;5173911;28;20054;-81
2022/08/01 00:15:52;;;;;;;1.80;1.02;;;22.70;98.20;;;23.20;92.65;100978.41;5173079;28;20053;-83
2022/08/01 00:18:24;;;;;;;1.35;0.90;;;22.70;98.30;;;23.17;92.97;100984.66;5188326;28;20050;-84
2022/08/01 00:20:58;;;;;;;2.55;1.15;;;22.70;98.30;;;23.18;92.74;100980.22;5189389;28;20045;-82
2022/08/01 00:23:30;;;;;;;1.20;1.02;;;22.70;98.30;;;23.18;92.87;100973.13;5173312;28;20058;-82
2022/08/01 00:26:03;;;;;;;1.38;1.05;;;22.70;98.40;;;23.19;93.05;100984.63;5188865;28;20050;-83
2022/08/01 00:28:35;;;;;;;1.95;1.05;;;22.70;98.40;;;23.16;93.04;100974.94;5190113;28;20482;-84
2022/08/01 00:31:07;;;;;;;2.85;0.85;;;22.70;98.30;;;23.18;93.21;100982.88;5173676;28;20140;-83
2022/08/01 00:33:39;;;;;;;2.33;1.00;;;22.70;98.40;;;23.19;92.66;100979.31;5173729;28;20053;-82
2022/08/01 00:36:12;;;;;;;2.15;1.10;;;22.70;98.30;;;23.17;93.20;100981.13;5191199;28;20049;-83
2022/08/01 00:38:44;;;;;;;2.58;0.98;;;22.70;98.40;;;23.16;93.42;100976.72;5190989;28;20487;-82
2022/08/01 00:41:17;;;;;;;3.40;1.45;;;22.70;98.50;;;23.17;93.41;100981.13;5177874;28;20050;-82
2022/08/01 00:43:49;;;;;;;1.77;1.15;;;22.70;98.60;;;23.15;93.48;100980.28;5179571;28;20046;-83
2022/08/01 00:46:21;;;;;;;2.40;1.00;;;22.70;98.60;;;23.16;93.40;100980.25;5179052;28;20058;-83
2022/08/01 00:48:54;;;;;;;1.80;1.08;;;22.70;98.70;;;23.16;94.00;100979.38;5179342;28;20050;-82
2022/08/01 00:51:28;;;;;;;1.42;1.20;;;22.70;98.70;;;23.11;94.58;100973.25;5177950;28;20041;-82
2022/08/01 00:54:01;;;;;;;3.65;1.40;;;22.60;98.90;;;23.08;95.20;100983.91;5188812;28;20044;-82
2022/08/01 00:56:33;;;;;;;1.23;1.00;;;22.60;99.10;;;23.06;95.11;100975.06;5185685;28;20069;-82
2022/08/01 00:59:06;;;;;;;1.90;1.20;;;22.60;99.20;;;23.04;95.37;100975.09;5188538;28;20065;-81
2022/08/01 01:01:38;;;;;;;2.47;1.23;;;22.60;99.30;;;23.02;95.41;100974.25;5181471;28;20041;-82
2022/08/01 01:04:10;;;;;;;1.95;1.10;;;22.60;99.40;;;23.04;95.28;100977.75;5198144;28;20049;-82
2022/08/01 01:06:58;;;;;;;1.75;0.93;;;22.60;99.30;;;23.01;95.57;100978.66;5212820;28;20045;-82
2022/08/01 01:09:39;;;;;;;1.63;1.27;;;22.60;99.40;;;23.00;95.92;100979.56;5200898;28;20048;-82
2022/08/01 01:12:20;;;;;;;2.10;1.20;;;22.50;99.40;;;22.98;96.20;100978.72;5199530;28;20523;-81
2022/08/01 01:15:03;;;;;;;2.70;1.10;;;22.50;99.50;;;22.96;96.52;100977.88;5183956;28;20495;-81
2022/08/01 01:17:42;;;;;;;4.63;1.10;;;22.50;99.70;;;22.93;96.90;100980.56;5181848;28;20511;-83
2022/08/01 01:20:16;;;;;;;1.40;1.05;;;22.50;99.80;;;22.93;97.18;100979.69;5204704;28;20100;-81
2022/08/01 01:23:07;;;;;;;1.58;1.20;;;22.50;99.90;;;22.90;97.33;100991.25;5201057;28;20049;-82
2022/08/01 01:26:01;;;;;;;2.03;1.20;;;22.40;99.90;;;22.87;98.04;100988.59;5200572;28;20058;-83
2022/08/01 01:28:46;;;;;;;2.72;1.75;;;22.40;99.90;;;22.84;99.75;100999.25;5193506;28;20415;-83
2022/08/01 01:31:22;;;;;;;1.45;1.27;;;22.40;99.90;;;22.74;100.00;100997.59;5184458;28;20052;-82
2022/08/01 01:33:56;;;;;;;2.55;1.25;;;22.40;99.90;;;22.63;100.00;100999.53;5171108;28;20167;-83
2022/08/01 01:36:29;;;;;;;1.30;1.20;;;22.30;99.90;;;22.56;100.00;100997.81;5184048;28;20048;-83
2022/08/01 01:39:02;;;;;;;1.67;1.30;;;22.20;99.90;;;22.45;100.00;100996.16;5183387;28;20068;-82
2022/08/01 01:41:37;;;;;;;1.85;1.20;;;22.10;99.90;;;22.38;100.00;100999.78;5186186;28;20070;-83
2022/08/01 01:44:11;;;;;;;2.50;1.40;;;22.00;99.90;;;22.34;100.00;100998.03;5174768;28;20056;-82
2022/08/01 01:46:46;;;;;;;2.58;1.42;;;21.90;99.90;;;22.37;100.00;101006.00;5192104;28;20134;-83
2022/08/01 01:49:23;;;;;;;2.05;1.30;;;21.90;99.90;;;22.34;100.00;101002.47;5190762;28;20496;-82
2022/08/01 01:51:57;;;;;;;3.42;1.40;;;21.90;99.90;;;22.34;100.00;101006.00;5190764;28;20050;-82
2022/08/01 01:54:33;;;;;;;1.63;1.40;;;21.90;99.90;;;22.32;100.00;101002.50;5174277;28;20046;-85
2022/08/01 01:57:07;;;;;;;2.22;1.30;;;21.90;99.90;;;22.31;100.00;101003.41;5190537;28;20141;-84
2022/08/01 01:59:42;;;;;;;2.20;1.38;;;21.90;99.90;;;22.33;100.00;101000.72;5173751;28;20052;-83
2022/08/01 02:02:17;;;;;;;2.47;1.40;;;21.80;99.90;;;22.33;100.00;100995.41;5190350;28;20114;-85
2022/08/01 02:04:50;;;;;;;3.05;1.70;;;21.90;99.90;;;22.32;100.00;101002.50;5174869;28;20400;-84
2022/08/01 02:07:26;;;;;;;2.70;1.52;;;21.90;99.90;;;22.36;100.00;101001.56;5174706;28;20049;-84
2022/08/01 02:10:00;;;;;;;2.72;1.75;;;21.90;99.90;;;22.34;100.00;101003.34;5190951;28;20045;-84
2022/08/01 02:12:37;;;;;;;1.65;1.40;;;21.90;99.90;;;22.36;100.00;100995.38;5191646;28;20046;-83
2022/08/01 02:15:12;;;;;;;3.17;1.70;;;21.90;99.90;;;22.40;100.00;101002.41;5173626;28;20423;-85
2022/08/01 02:17:50;;;;;;;2.25;1.38;;;21.90;99.90;;;22.41;100.00;100994.41;5173776;28;20049;-84
2022/08/01 02:20:23;;;;;;;2.22;1.35;;;21.90;99.90;;;22.42;100.00;100995.28;5189943;28;20494;-84
2022/08/01 02:23:01;;;;;;;1.83;1.33;;;22.00;99.90;;;22.40;100.00;100997.97;5173584;28;20073;-84
2022/08/01 02:25:39;;;;;;;2.42;1.50;;;21.90;99.90;;;22.39;100.00;100980.28;5189606;28;20057;-85
2022/08/01 02:28:16;;;;;;;2.50;1.38;;;21.90;99.90;;;22.40;100.00;100991.78;5172936;28;20056;-83
2022/08/01 02:30:50;;;;;;;2.17;1.50;;;21.90;99.90;;;22.37;100.00;100995.38;5173294;28;20046;-84
2022/08/01 02:33:31;;;;;;;1.73;1.23;;;21.90;99.90;;;22.34;100.00;100992.72;5190941;28;20053;-85
2022/08/01 02:36:05;;;;;;;2.38;1.40;;;21.90;99.90;;;22.30;100.00;100991.03;5172783;28;20119;-83
2022/08/01 02:38:42;;;;;;;4.32;1.70;;;21.80;99.90;;;22.28;100.00;100998.09;5173207;28;20502;-83
2022/08/01 02:41:22;;;;;;;3.08;1.80;;;21.80;99.90;;;22.26;100.00;100991.06;5189181;28;20096;-83
2022/08/01 02:44:00;;;;;;;2.83;1.75;;;21.80;99.90;;;22.21;100.00;100991.97;5173492;28;20144;-84
2022/08/01 02:46:37;;;;;;;2.40;1.58;;;21.80;99.90;;;22.21;100.00;100993.75;5173270;28;20057;-83
2022/08/01 02:49:12;;;;;;;2.60;1.60;;;21.70;99.90;;;22.20;100.00;100992.88;5173590;28;20050;-83
2022/08/01 02:51:46;;;;;;;3.50;1.50;;;21.70;99.90;;;22.21;100.00;100996.41;5190455;28;20533;-82
2022/08/01 02:54:22;;;;;;;2.25;1.50;;;21.70;99.90;;;22.21;100.00;100991.09;5191491;28;20061;-84
2022/08/01 02:56:56;;;;;;;3.10;1.85;;;21.70;99.90;;;22.20;100.00;100987.56;5173500;28;20133;-84
2022/08/01 02:59:30;;;;;;;2.80;1.50;;;21.70;99.90;;;22.22;100.00;100984.88;5190200;28;20084;-84
2022/08/01 03:02:04;;;;;;;3.08;1.52;;;21.80;99.90;;;22.22;100.00;100987.53;5172183;28;20463;-84
2022/08/01 03:04:40;;;;;;;2.25;1.50;;;21.70;99.90;;;22.20;100.00;100989.34;5174207;28;20073;-83
2022/08/01 03:07:14;;;;;;;4.32;1.70;;;21.70;99.90;;;22.18;100.00;100991.13;5191451;28;20057;-83
2022/08/01 03:09:48;;;;;;;3.50;1.83;;;21.70;99.90;;;22.21;100.00;100999.06;5173339;28;20076;-84
2022/08/01 03:12:24;;;;;;;;;;;21.70;99.90;;;22.22;100.00;100995.50;5174555;28;20041;-84
2022/08/01 03:14:57;;;;;;;3.67;1.70;;;21.80;99.90;;;22.23;100.00;100991.94;5173683;28;19926;-83
2022/08/01 03:17:31;;;;;;;4.15;2.20;;;21.80;99.90;;;22.22;100.00;100992.84;5191099;28;20435;-83
2022/08/01 03:20:08;;;;;;;2.97;1.80;;;21.80;99.90;;;22.20;100.00;100997.31;5191850;28;20046;-84
2022/08/01 03:22:41;;;;;;;2.00;1.60;;;21.80;99.90;;;22.17;100.00;100995.56;5191576;28;20045;-82
2022/08/01 03:25:16;;;;;;;3.00;1.90;;;21.70;99.90;;;22.19;100.00;101000.88;5174088;28;20046;-83
2022/08/01 03:27:52;;;;;;;;;;;21.70;99.90;;;22.17;100.00;101000.00;5192532;28;20050;-82
2022/08/01 03:30:26;;;;;;;2.90;1.77;;;21.70;99.90;;;22.16;100.00;101004.41;5173579;28;19922;-84
2022/08/01 03:32:59;;;;;;;3.42;1.73;;;21.70;99.90;;;22.13;100.00;101004.44;5174929;28;20046;-82
2022/08/01 03:35:38;;;;;;;4.47;1.98;;;21.70;99.90;;;22.10;100.00;101007.13;5174633;28;20046;-86
2022/08/01 03:38:13;;;;;;;4.10;2.33;;;21.70;99.90;;;22.12;100.00;101001.81;5171575;28;20762;-84
2022/08/01 03:40:50;;;;;;;4.13;1.98;;;21.70;99.90;;;22.11;100.00;101003.59;5171992;28;20104;-83
2022/08/01 03:43:31;;;;;;;4.32;2.25;;;21.70;99.90;;;22.13;100.00;100992.97;5171580;28;20057;-83
2022/08/01 03:46:08;;;;;;;2.97;1.67;;;21.70;99.90;;;22.11;100.00;101000.94;5171585;28;20050;-83
2022/08/01 03:48:45;;;;;;;4.07;2.22;;;21.70;99.90;;;22.12;100.00;101001.81;5322135;23;20042;-74
2022/08/01 03:51:20;;;;;;;4.07;2.10;;;21.70;99.90;;;22.12;100.00;101004.47;5179788;28;20038;-77
2022/08/01 03:53:55;;;;;;;2.95;2.10;;;21.70;99.90;;;22.10;100.00;101006.25;5184587;28;20521;-75
2022/08/01 03:56:30;;;;;;;3.75;2.10;;;21.60;99.90;;;22.07;100.00;101003.59;5169679;28;20569;-75
2022/08/01 03:59:05;;;;;;;3.22;2.22;;;21.60;99.90;;;22.04;100.00;100998.28;5186621;28;20045;-76
2022/08/01 04:01:38;;;;;;;3.90;2.40;;;21.60;99.90;;;22.04;100.00;101000.94;5186877;28;20038;-77
2022/08/01 04:04:10;;;;;;;4.70;2.22;;;21.60;99.90;;;22.06;100.00;101002.72;5186810;28;20042;-77
2022/08/01 04:06:44;;;;;;;3.42;1.95;;;21.60;99.90;;;22.07;100.00;101008.91;5188534;28;20101;-77
2022/08/01 04:09:17;;;;;;;5.18;2.35;;;21.60;99.90;;;22.08;100.00;101002.69;5187579;28;20414;-77
2022/08/01 04:11:50;;;;;;;5.95;2.20;;;21.60;99.90;;;22.09;100.00;101001.81;5188230;28;20141;-76
2022/08/01 04:14:22;;;;;;;3.67;2.03;;;21.60;99.90;;;22.08;100.00;101005.34;5190633;28;20532;-76
2022/08/01 04:16:54;;;;;;;3.53;1.92;;;21.60;99.90;;;22.09;100.00;101001.81;5191328;28;20136;-76
2022/08/01 04:19:26;;;;;;;2.20;1.70;;;21.60;99.90;;;22.08;100.00;101000.91;5190481;28;20121;-76
2022/08/01 04:22:02;;;;;;;4.90;2.28;;;21.60;99.90;;;22.09;100.00;101001.81;5190572;28;20434;-76
2022/08/01 04:24:36;;;;;;;5.00;2.53;;;21.60;99.90;;;22.11;100.00;101002.72;5190703;28;20406;-74
2022/08/01 04:27:14;;;;;;;5.47;2.30;;;21.70;99.90;;;22.09;100.00;101007.13;5190745;28;20133;-78
2022/08/01 04:29:50;;;;;;;3.50;2.10;;;21.60;99.90;;;22.06;100.00;101008.03;5174269;28;20048;-77
2022/08/01 04:32:23;;;;;;;4.47;1.98;;;21.70;99.90;;;22.08;100.00;101019.50;5190527;28;20097;-77
2022/08/01 04:34:57;;;;;;;2.45;1.73;;;21.60;99.90;;;22.10;100.00;101008.88;5190636;28;20057;-76
2022/08/01 04:37:32;;;;;;;3.95;2.13;;;21.60;99.90;;;22.09;100.00;101023.06;5189992;28;20117;-76
2022/08/01 04:40:06;;;;;;;;;;;21.60;99.90;;;22.10;100.00;101014.19;5191131;28;20398;-76
2022/08/01 04:42:38;;;;;;;3.35;2.05;;;21.70;99.90;;;22.14;100.00;101018.59;5191137;28;19932;-77
2022/08/01 04:45:12;;;;;;;4.03;1.90;;;21.70;99.90;;;22.17;100.00;101021.25;5191071;28;20115;-77
2022/08/01 04:47:45;;;;;;;5.10;2.05;;;21.70;99.90;;;22.18;100.00;101023.00;5190421;28;20053;-76
2022/08/01 04:50:17;;;;;;;3.72;2.30;;;21.70;99.90;;;22.19;100.00;101024.75;5189860;28;20100;-77
2022/08/01 04:52:51;;;;;;;5.13;2.42;;;21.70;99.90;;;22.17;100.00;101024.78;5190695;28;20042;-76
2022/08/01 04:55:23;;;;;;;3.78;2.63;;;21.70;99.90;;;22.16;100.00;101030.97;5191254;28;20450;-78
2022/08/01 04:57:55;;;;;;;5.55;2.50;;;21.70;99.90;;;22.18;100.00;101036.28;5190508;28;20080;-77
2022/08/01 05:00:28;;;;;;;6.53;2.47;;;21.70;99.90;;;22.19;100.00;101035.38;5189441;28;20041;-78
2022/08/01 05:03:00;;;;;;;4.72;2.58;;;21.70;99.90;;;22.17;100.00;101037.19;5170195;28;20057;-74
2022/08/01 05:05:33;;;;;;;5.72;2.83;;;21.70;99.90;;;22.16;100.00;101030.97;5187942;28;20042;-75
2022/08/01 05:08:06;;;;;;;5.13;3.00;;;21.70;99.90;;;22.14;100.00;101034.53;5187311;28;20049;-74
2022/08/01 05:10:38;;;;;;;4.50;2.45;;;21.70;99.90;;;22.13;100.00;101035.44;5187585;28;20045;-74
2022/08/01 05:13:11;;;;;;;5.72;2.50;;;21.70;99.90;;;22.12;100.00;101033.69;5187651;28;20029;-75
2022/08/01 05:15:43;;;;;;;5.75;2.88;;;21.70;99.90;;;22.10;100.00;101031.00;5187603;28;20129;-75
2022/08/01 05:18:16;;;;;;;5.95;3.10;;;21.70;99.90;;;22.11;100.00;101031.91;5187265;28;20046;-76
2022/08/01 05:20:48;;;;;;;5.72;3.30;;;21.70;99.90;;;22.12;100.00;101044.28;5187492;28;20042;-74
2022/08/01 05:23:21;;;;;;;4.78;3.00;;;21.60;99.90;;;22.13;100.00;101035.44;5187307;28;20129;-74
2022/08/01 05:25:54;;;;;;;6.38;3.90;;;21.70;99.90;;;22.12;100.00;101039.00;5186553;28;20046;-74
2022/08/01 05:28:26;;;;;;;8.05;4.10;;;21.70;99.90;;;22.11;100.00;101032.78;5169486;28;20073;-75
2022/08/01 05:30:58;;;;;;;8.68;4.00;;;21.70;99.90;;;22.11;100.00;101031.91;5187245;28;20048;-75
2022/08/01 05:33:30;;;;;;;6.85;3.63;;;21.70;99.90;;;22.11;100.00;101037.22;5187299;28;20502;-75
2022/08/01 05:36:02;;;;;;;6.57;3.97;;;21.70;99.90;;;22.13;100.00;101041.63;5187258;28;20124;-74
2022/08/01 05:38:36;;;;;;;6.55;3.78;;;21.70;99.90;;;22.19;100.00;101041.56;5186896;28;20538;-75
2022/08/01 05:41:08;;;;;;;6.03;3.72;;;21.70;99.90;;;22.21;100.00;101050.38;5186882;28;20042;-73
2022/08/01 05:43:40;;;;;;;6.18;3.88;;;21.80;99.90;;;22.24;100.00;101054.81;5186901;28;20046;-74
2022/08/01 05:46:13;;;;;;;6.30;3.90;;;21.80;99.90;;;22.28;100.00;101051.22;5187017;28;20050;-74
2022/08/01 05:48:45;;;;;;;7.13;3.78;;;21.80;99.90;;;22.30;100.00;101059.16;5186417;28;20042;-74
2022/08/01 05:51:17;;;;;;;8.20;3.70;;;21.80;99.90;;;22.32;100.00;101058.28;5186754;28;20121;-75
2022/08/01 05:53:51;;;;;;;8.25;4.30;;;21.80;99.90;;;22.32;100.00;101058.28;5186824;28;20041;-75
2022/08/01 05:56:23;;;;;;;8.35;4.50;;;21.80;99.90;;;22.31;100.00;101063.59;5185566;28;20054;-74
2022/08/01 05:58:56;;;;;;;7.80;4.78;;;21.90;99.90;;;22.32;100.00;101066.22;5186464;28;20133;-74
2022/08/01 06:01:28;;;;;;;8.05;4.55;;;21.90;99.90;;;22.33;100.00;101069.75;5186533;28;20418;-73
2022/08/01 06:04:00;;;;;;;8.35;4.30;;;21.90;99.90;;;22.35;100.00;101067.97;5192050;28;20042;-74
2022/08/01 06:06:32;;;;;;;10.80;5.70;;;21.90;99.90;;;22.33;100.00;101065.34;5197119;28;20048;-73
2022/08/01 06:09:06;;;;;;;10.93;5.68;;;21.90;99.90;;;22.30;100.00;101062.72;5196870;28;20103;-74
2022/08/01 06:11:38;;;;;;;10.13;5.20;;;21.80;99.90;;;22.28;100.00;101064.50;5196415;28;20069;-73
2022/08/01 06:14:10;;;;;;;11.77;5.70;;;21.90;99.90;;;22.28;100.00;101067.13;5195629;28;20407;-73
2022/08/01 06:16:42;;;;;;;10.35;5.28;;;21.80;99.90;;;22.29;100.00;101066.25;5195798;28;20046;-75
2022/08/01 06:19:14;;;;;;;7.60;4.20;;;21.80;99.90;;;22.31;100.00;101063.59;5166139;28;20054;-67
2022/08/01 06:21:46;;;;;;;7.47;4.30;;;21.80;99.90;;;22.39;100.00;101067.06;5148607;28;20407;-67
2022/08/01 06:24:22;;;;;;;7.65;4.53;;;21.90;99.90;;;22.46;100.00;101072.28;5166079;28;20467;-67
2022/08/01 06:26:54;;;;;;;5.93;3.95;;;22.00;99.90;;;22.55;100.00;101070.44;5166197;28;20100;-68
2022/08/01 06:29:26;;;;;;;8.50;4.28;;;22.00;99.90;;;22.61;100.00;101065.06;5166175;28;20073;-68
2022/08/01 06:31:59;;;;;;;8.23;4.50;;;22.10;99.90;;;22.67;100.00;101062.34;5166058;28;20066;-68
2022/08/01 06:34:31;;;;;;;9.38;4.80;;;22.20;99.90;;;22.77;100.00;101069.31;5165993;28;20133;-66
2022/08/01 06:37:03;;;;;;;9.38;4.50;;;22.30;99.90;;;22.93;100.00;101062.94;5165900;28;20133;-67
2022/08/01 06:39:36;;;;;;;8.05;4.93;;;22.40;99.90;;;23.09;100.00;101062.78;5165925;28;20459;-67
2022/08/01 06:42:09;;;;;;;7.70;4.45;;;22.50;99.90;;;23.20;100.00;101071.50;5165881;28;20121;-68
2022/08/01 06:44:41;;;;;;;8.38;3.63;;;22.70;99.90;;;23.29;100.00;101074.94;5165843;28;20070;-68
2022/08/01 06:47:13;;;;;;;8.60;4.18;;;22.70;99.90;;;23.35;100.00;101066.00;5165601;28;20050;-68
2022/08/01 06:49:46;;;;;;;7.78;3.80;;;22.80;99.90;;;23.37;100.00;101072.16;5148136;28;20046;-67
2022/08/01 06:52:18;;;;;;;6.90;3.97;;;22.90;99.90;;;23.45;100.00;101070.25;5165548;28;20157;-69
2022/08/01 06:54:52;;;;;;;5.22;3.38;;;22.90;99.90;;;23.51;99.70;101062.19;5165694;28;20101;-68
2022/08/01 06:57:24;;;;;;;6.88;3.65;;;23.00;99.90;;;23.59;99.30;101070.06;5165536;28;20039;-69
2022/08/01 06:59:56;;;;;;;6.88;3.80;;;23.00;99.90;;;23.67;98.73;101072.63;5165656;28;20491;-68
2022/08/01 07:02:29;;;;;;;7.10;3.97;;;23.10;99.90;;;23.74;98.17;101071.69;5165449;28;20434;-68
2022/08/01 07:05:01;;;;;;;7.95;4.10;;;23.20;99.90;;;23.84;97.31;101065.28;5165806;28;20106;-55
2022/08/01 07:07:33;;;;;;;8.55;5.00;;;23.30;99.90;;;23.98;96.52;101062.41;5166692;28;20140;-56
2022/08/01 07:10:09;;;;;;;8.52;4.75;;;23.40;99.90;;;24.07;95.55;101060.50;5166399;28;20134;-55
2022/08/01 07:12:41;;;;;;;8.93;4.68;;;23.40;99.90;;;24.07;96.23;101070.25;5166098;28;20115;-56
2022/08/01 07:15:14;;;;;;;7.05;3.67;;;23.40;99.90;;;24.09;96.21;101072.00;5165823;28;20125;-56
2022/08/01 07:17:46;;;;;;;5.75;3.65;;;23.40;99.90;;;24.18;95.46;101078.94;5165740;28;20122;-55
2022/08/01 07:20:18;;;;;;;8.25;3.83;;;23.50;99.90;;;24.28;94.51;101071.69;5165999;28;20144;-57
2022/08/01 07:22:50;;;;;;;7.57;4.00;;;23.60;99.90;;;24.38;94.22;101072.41;5166125;28;20480;-55
2022/08/01 07:25:24;;;;;;;7.00;4.13;;;23.60;99.90;;;24.46;93.06;101079.38;5165602;28;20050;-55
2022/08/01 07:27:56;;;;;;;5.57;3.90;;;23.70;99.90;;;24.38;93.42;101072.41;5167612;28;20557;-56
2022/08/01 07:30:28;;;;;;;8.32;3.67;;;23.70;99.90;;;24.24;94.55;101081.50;5185866;28;20041;-55
2022/08/01 07:33:01;;;;;;;7.90;4.00;;;23.70;99.90;;;24.16;95.30;101078.09;5185717;28;20052;-56
2022/08/01 07:35:33;;;;;;;5.72;3.80;;;23.60;99.90;;;24.14;96.12;101074.59;5185700;28;20443;-56
2022/08/01 07:38:05;;;;;;;7.00;4.00;;;23.60;99.90;;;24.18;96.25;101083.38;5185650;28;20057;-57
2022/08/01 07:40:38;;;;;;;6.75;3.53;;;23.60;99.90;;;24.17;96.40;101078.97;5185955;28;20053;-56
2022/08/01 07:43:11;;;;;;;5.55;3.50;;;23.60;99.90;;;24.13;96.43;101077.28;5168342;28;20042;-57
2022/08/01 07:45:43;;;;;;;8.05;4.05;;;23.60;99.90;;;24.08;95.69;101082.66;5186474;28;20080;-55
2022/08/01 07:48:15;;;;;;;7.20;4.18;;;23.50;99.90;;;23.96;96.46;101078.41;5186254;28;20056;-56
2022/08/01 07:50:48;;;;;;;8.88;4.25;;;23.40;99.90;;;23.92;97.45;101090.00;5190155;28;20570;-55
2022/08/01 07:53:20;;;;;;;6.93;4.05;;;23.30;99.90;;;23.83;97.81;101090.16;5189838;28;20096;-55
2022/08/01 07:55:53;;;;;;;8.25;4.30;;;23.30;99.90;;;23.82;98.41;101093.72;5190140;28;20044;-56
2022/08/01 07:58:25;;;;;;;8.10;4.07;;;23.30;99.90;;;23.86;98.55;101084.78;5189586;28;20048;-59
2022/08/01 08:00:57;;;;;;;6.53;4.03;;;23.30;99.90;;;23.90;98.49;101091.81;5190068;28;20126;-63
2022/08/01 08:03:30;;;;;;;6.53;4.00;;;23.30;99.90;;;24.00;97.68;101092.56;5177678;28;20058;-58
2022/08/01 08:06:02;;;;;;;8.80;4.00;;;23.40;99.90;;;24.09;96.95;101098.63;5181062;28;20141;-58
2022/08/01 08:08:35;;;;;;;6.28;4.07;;;23.50;99.90;;;24.14;96.24;101100.34;5190245;28;20049;-58
2022/08/01 08:11:08;;;;;;;6.28;3.80;;;23.50;99.90;;;24.18;95.64;101097.56;5190145;28;20081;-58
2022/08/01 08:13:40;;;;;;;6.85;3.85;;;23.60;99.90;;;24.22;95.28;101096.63;5168815;28;20517;-58
2022/08/01 08:16:12;;;;;;;8.43;4.10;;;23.60;99.90;;;24.25;94.93;101098.34;5190408;28;20124;-60
2022/08/01 08:18:44;;;;;;;6.97;4.75;;;23.60;99.90;;;24.43;95.42;101091.88;5190650;28;20465;-59
2022/08/01 08:21:17;;;;;;;6.28;3.63;;;23.70;99.90;;;25.12;94.20;101095.03;5191609;28;20124;-58
2022/08/01 08:26:40;;;;;;;6.97;4.18;;;24.50;99.60;;;26.04;86.45;101098.34;5191368;28;20046;-60
2022/08/01 08:29:12;;;;;;;5.63;3.70;;;24.80;98.60;;;26.17;84.90;101097.13;5171119;28;20042;-59
2022/08/01 08:31:45;;;;;;;7.32;3.78;;;25.00;97.90;;;26.26;83.52;101098.66;5173187;28;20128;-58
2022/08/01 08:34:17;;;;;;;5.38;3.45;;;25.10;97.20;;;26.21;83.14;101105.91;5183173;28;20104;-58
2022/08/01 08:36:50;;;;;;;7.03;3.75;;;25.20;96.90;;;26.12;82.86;101099.00;5190725;28;20056;-60
2022/08/01 08:39:22;;;;;;;5.40;3.60;;;25.20;96.50;;;26.00;82.80;101104.66;5189581;28;20046;-58
2022/08/01 08:41:58;;;;;;;5.68;3.88;;;25.10;96.30;;;25.82;82.74;101107.75;5191633;28;20129;-59
2022/08/01 08:44:30;;;;;;;6.82;4.53;;;25.00;96.00;;;25.67;82.67;101108.97;5189361;28;20483;-58
2022/08/01 08:47:05;;;;;;;5.50;4.28;;;24.90;95.90;;;25.58;83.49;101115.38;5170922;28;20042;-59
2022/08/01 08:49:37;;;;;;;6.53;4.38;;;24.80;96.10;;;25.66;83.71;101110.75;5177448;28;20034;-59
2022/08/01 08:52:11;;;;;;;6.93;4.88;;;24.80;96.30;;;25.98;83.27;101109.16;5180674;28;20384;-60
2022/08/01 08:54:44;;;;;;;7.65;4.55;;;25.00;96.40;;;26.21;81.77;101106.81;5189366;28;20046;-57
2022/08/01 08:57:20;;;;;;;5.93;4.00;;;25.10;96.00;;;26.92;80.21;101115.66;5189896;28;20133;-58
2022/08/01 08:59:53;;;;;;;6.25;4.38;;;25.50;96.10;;;27.77;76.74;101113.19;5188334;28;20054;-59
2022/08/01 09:02:26;;;;;;;6.32;4.38;;;26.10;94.90;;;28.00;74.55;101115.16;5188083;28;20050;-73
2022/08/01 09:04:59;;;;;;;5.55;3.92;;;26.40;93.80;;;27.73;74.92;101122.25;5187166;28;20137;-71
2022/08/01 09:07:31;;;;;;;5.03;4.15;;;26.40;93.40;;;27.36;76.32;101121.59;5164843;28;20582;-70
2022/08/01 09:10:06;;;;;;;5.82;3.97;;;26.30;93.50;;;27.02;77.49;101136.78;5166079;28;20577;-71
2022/08/01 09:12:39;;;;;;;5.78;4.65;;;26.10;93.60;;;26.72;78.76;101130.47;5166105;28;20389;-71
2022/08/01 09:15:11;;;;;;;5.85;4.38;;;25.90;93.90;;;26.34;79.78;101126.06;5166251;28;20053;-70
2022/08/01 09:17:43;;;;;;;6.53;4.53;;;25.60;94.00;;;26.02;81.06;101129.56;5165969;28;20050;-71
2022/08/01 09:20:24;;;;;;;5.97;4.47;;;25.30;94.30;;;25.79;82.05;101129.19;5166268;28;20511;-71
2022/08/01 09:22:56;;;;;;;7.03;4.45;;;25.10;94.70;;;25.66;83.22;101124.09;5167050;28;20046;-73
2022/08/01 09:25:33;;;;;;;5.10;3.92;;;25.00;95.10;;;25.61;84.06;101135.78;5167453;28;20050;-70
2022/08/01 09:28:07;;;;;;;6.20;4.20;;;24.90;95.50;;;25.48;84.27;101135.16;5167123;28;20137;-73
2022/08/01 09:30:40;;;;;;;5.88;4.07;;;24.80;95.60;;;25.34;84.98;101126.59;5167085;28;20042;-71
2022/08/01 09:33:12;;;;;;;4.95;3.63;;;24.70;95.80;;;25.17;85.11;101135.81;5166778;28;20129;-71
2022/08/01 09:35:45;;;;;;;5.57;3.83;;;24.50;95.80;;;25.14;86.02;101125.19;5166991;28;20125;-71
2022/08/01 09:38:20;;;;;;;6.00;3.95;;;24.50;96.40;;;25.19;86.32;101122.44;5166567;28;20043;-71
2022/08/01 09:40:54;;;;;;;4.93;3.97;;;24.50;96.70;;;25.27;86.73;101124.97;5166842;28;20054;-71
2022/08/01 09:43:31;;;;;;;7.93;4.10;;;24.50;96.60;;;25.62;87.57;101122.41;5166517;28;20093;-71
2022/08/01 09:46:10;;;;;;;4.88;4.00;;;24.70;97.00;;;25.91;85.54;101126.25;5166806;28;20100;-70
2022/08/01 09:48:57;;;;;;;5.00;3.85;;;25.00;96.60;;;26.07;84.29;101129.41;5197746;23;20050;-84
2022/08/01 09:51:30;;;;;;;;;;;25.20;96.10;;;26.32;84.40;101124.34;5174636;28;20104;-84
2022/08/01 09:54:05;;;;;;;6.20;3.92;;;25.40;96.10;;;26.87;82.04;101118.50;5192326;28;20391;-84
2022/08/01 09:56:41;;;;;;;5.70;4.00;;;25.80;95.60;;;27.18;79.95;101123.00;5195153;28;20120;-83
2022/08/01 09:59:16;;;;;;;6.05;4.53;;;26.10;94.80;;;27.27;78.90;101128.97;5174903;28;20471;-84
2022/08/01 10:01:49;;;;;;;5.10;3.40;;;26.30;94.50;;;27.48;78.17;101122.09;5176675;28;20077;-84
2022/08/01 10:04:24;;;;;;;4.10;3.25;;;26.50;93.80;;;27.78;75.48;101120.31;5177426;28;20104;-83
2022/08/01 10:07:06;;;;;;;4.35;3.08;;;26.70;92.80;;;28.02;75.07;101120.44;5179907;28;20050;-85
2022/08/01 10:09:38;;;;;;;4.50;3.17;;;26.90;92.40;;;28.09;73.64;101122.00;5176358;28;20108;-85
2022/08/01 10:12:12;;;;;;;4.10;3.13;;;27.10;91.90;;;27.93;73.08;101127.00;5176866;28;20050;-85
2022/08/01 10:14:49;;;;;;;7.80;3.70;;;27.00;91.20;;;27.89;72.71;101124.44;5170402;28;20048;-78
2022/08/01 10:17:25;;;;;;;4.28;3.00;;;27.00;90.90;;;27.96;72.62;101117.97;5170132;28;20041;-79
2022/08/01 10:19:59;;;;;;;4.28;3.13;;;27.00;90.90;;;28.14;72.89;101114.69;5187163;28;20060;-79
2022/08/01 10:22:33;;;;;;;5.00;2.97;;;27.10;91.00;;;28.14;71.74;101114.69;5186672;28;20050;-80
2022/08/01 10:25:07;;;;;;;3.88;2.90;;;27.10;90.40;;;28.01;71.55;101110.66;5170300;28;20042;-80
2022/08/01 10:27:45;;;;;;;3.58;2.90;;;27.10;90.10;;;27.89;71.48;101111.06;5163375;28;20061;-83
2022/08/01 10:30:18;;;;;;;3.95;2.58;;;27.00;90.00;;;27.91;72.00;101110.09;5180832;28;20045;-82
2022/08/01 10:32:52;;;;;;;4.72;2.92;;;27.00;90.10;;;28.22;71.97;101109.06;5168963;28;20064;-84
2022/08/01 10:35:24;;;;;;;3.97;2.70;;;27.20;90.20;;;28.43;70.58;101107.50;5170684;28;20048;-83
2022/08/01 10:37:57;;;;;;;4.25;2.97;;;27.30;89.30;;;28.49;70.25;101107.28;5192058;28;20112;-79
2022/08/01 10:40:30;;;;;;;3.08;2.63;;;27.40;88.90;;;28.44;71.17;101103.91;5179588;28;20100;-81